Terminal Aerodrome Forecast
Issued by NWS Cleveland, OH

Home | Current Version | Previous Version | Graphics & Text | Print | Product List | Glossary On
Versions: 1 2 3 4 5 6 7 8 9 10 11 12 13 14 15 16 17 18 19 20 21
000
FTUS41 KCLE 191700 AAC
TAFCAK
TAF AMD
KCAK 191718Z 1917/2012 18008KT 4SM -SHRA BKN006 OVC015
     FM191930 17006KT P6SM SCT015 OVC028
      TEMPO 1920/1924 5SM -SHRA
     FM200000 00000KT P6SM BKN035
     FM200800 00000KT 1SM BR SCT005=

USA.gov is the U.S. government's official web portal to all federal, state and local government web resources and services.